Skip Navigation Links
NOAA logo - Click to go to the NOAA homepage
NOAA's National Weather Service
Alaska Aviation Weather Unit
  NWS logo - Click to go to the NWS homepage
Left Navbar Graphic     03 AKDT = 11 GMT

   
NOAA is celebrating 200 years of science, service, and stewardship. Visit the NOAA 200th celebration Web site to learn more.
USA.gov is the U.S. Government's official Web portal to all Federal, state and local government Web resources and services.
Facebook
NWS on Facebook

AAWU Home :: Display TAF Add Bookmark
TAF PAWG 290531Z 2906/3006 10005KT P6SM -SHRA FEW008 BKN025 OVC045
     FM292200 VRB05KT 6SM -SHRA BKN015 OVC030
      AMD LTD TO CLD VIS AND WIND 2906/2915=

PAWG 290509Z 13003KT 10SM FEW008 BKN031 OVC045 06/04 A2985= SPECI PAWG 290509Z 13003KT 10SM FEW008 BKN031 OVC045 06/04 A2985 RMK AO2= METAR PAWG 290556Z 00000KT 10SM FEW008 BKN031 OVC045 06/04 A2985= METAR PAWG 290756Z AUTO 15005KT 10SM -RA BKN025 BKN035 OVC046 06/04 A2988= SPECI PAWG 290811Z AUTO 16004KT 10SM FEW025 OVC035 06/04 A2988 RMK AO2 RAE03 P0000= METAR PAWG 291056Z AUTO 14005KT 10SM FEW031 SCT048 05/03 A2985 RMK AO2 SLP111 T00500033=
 Alaska TAF Map

NOAA's National Weather Service
Alaska Aviation Weather Unit
6930 Sand Lake Road
Anchorage, AK 99502-1845
Disclaimer
Credits
Glossary
Privacy Policy
About Us
Career Opportunities
Contact AAWU Internet Services Site last modified: April, 17th 2012